sensor_id;sensor_type;location;lat;lon;timestamp;P1;durP1;ratioP1;P2;durP2;ratioP2
72235;SDS011;60146;52.498;13.462;2023-07-29T00:00:20;13.77;;;6.50;;
72235;SDS011;60146;52.498;13.462;2023-07-29T00:02:46;11.52;;;6.15;;
72235;SDS011;60146;52.498;13.462;2023-07-29T00:05:11;9.88;;;5.38;;
72235;SDS011;60146;52.498;13.462;2023-07-29T00:07:37;9.30;;;5.57;;
72235;SDS011;60146;52.498;13.462;2023-07-29T00:10:02;11.25;;;5.72;;
72235;SDS011;60146;52.498;13.462;2023-07-29T00:12:28;11.02;;;6.47;;
72235;SDS011;60146;52.498;13.462;2023-07-29T00:14:54;14.43;;;7.57;;
72235;SDS011;60146;52.498;13.462;2023-07-29T00:17:19;10.95;;;6.10;;
72235;SDS011;60146;52.498;13.462;2023-07-29T00:19:45;8.07;;;5.15;;
72235;SDS011;60146;52.498;13.462;2023-07-29T00:22:11;11.20;;;5.90;;
72235;SDS011;60146;52.498;13.462;2023-07-29T00:24:37;11.10;;;6.22;;
72235;SDS011;60146;52.498;13.462;2023-07-29T00:27:02;17.58;;;8.23;;
72235;SDS011;60146;52.498;13.462;2023-07-29T00:29:27;11.60;;;5.95;;
72235;SDS011;60146;52.498;13.462;2023-07-29T00:31:53;21.63;;;8.10;;
72235;SDS011;60146;52.498;13.462;2023-07-29T00:34:18;11.70;;;6.25;;
72235;SDS011;60146;52.498;13.462;2023-07-29T00:36:44;16.55;;;7.32;;
72235;SDS011;60146;52.498;13.462;2023-07-29T00:39:10;30.35;;;11.98;;
72235;SDS011;60146;52.498;13.462;2023-07-29T00:41:36;38.78;;;15.15;;
72235;SDS011;60146;52.498;13.462;2023-07-29T00:44:01;14.70;;;7.63;;
72235;SDS011;60146;52.498;13.462;2023-07-29T00:46:27;12.27;;;6.00;;
72235;SDS011;60146;52.498;13.462;2023-07-29T00:48:53;9.80;;;5.75;;
72235;SDS011;60146;52.498;13.462;2023-07-29T00:51:19;12.73;;;6.63;;
72235;SDS011;60146;52.498;13.462;2023-07-29T00:53:45;9.23;;;5.93;;
72235;SDS011;60146;52.498;13.462;2023-07-29T00:56:10;9.77;;;5.70;;
72235;SDS011;60146;52.498;13.462;2023-07-29T00:58:36;11.05;;;5.95;;
72235;SDS011;60146;52.498;13.462;2023-07-29T01:01:01;10.27;;;6.05;;
72235;SDS011;60146;52.498;13.462;2023-07-29T01:03:26;11.30;;;6.25;;
72235;SDS011;60146;52.498;13.462;2023-07-29T01:16:41;15.27;;;6.78;;
72235;SDS011;60146;52.498;13.462;2023-07-29T01:19:13;12.65;;;5.97;;
72235;SDS011;60146;52.498;13.462;2023-07-29T01:21:58;14.00;;;7.53;;
72235;SDS011;60146;52.498;13.462;2023-07-29T01:24:24;18.25;;;7.72;;
72235;SDS011;60146;52.498;13.462;2023-07-29T01:26:49;13.65;;;7.25;;
72235;SDS011;60146;52.498;13.462;2023-07-29T01:29:15;14.60;;;7.28;;
72235;SDS011;60146;52.498;13.462;2023-07-29T01:31:42;13.88;;;7.00;;
72235;SDS011;60146;52.498;13.462;2023-07-29T01:34:13;17.77;;;8.50;;
72235;SDS011;60146;52.498;13.462;2023-07-29T01:36:45;17.13;;;9.10;;
72235;SDS011;60146;52.498;13.462;2023-07-29T01:39:11;37.40;;;15.10;;
72235;SDS011;60146;52.498;13.462;2023-07-29T01:41:39;39.47;;;15.85;;
72235;SDS011;60146;52.498;13.462;2023-07-29T01:44:05;40.65;;;16.42;;
72235;SDS011;60146;52.498;13.462;2023-07-29T01:46:35;12.18;;;6.95;;
72235;SDS011;60146;52.498;13.462;2023-07-29T01:49:01;12.68;;;6.50;;
72235;SDS011;60146;52.498;13.462;2023-07-29T01:51:27;12.85;;;6.35;;
72235;SDS011;60146;52.498;13.462;2023-07-29T01:53:52;15.48;;;7.28;;
72235;SDS011;60146;52.498;13.462;2023-07-29T01:56:18;17.40;;;7.32;;
72235;SDS011;60146;52.498;13.462;2023-07-29T01:58:43;16.08;;;7.88;;
72235;SDS011;60146;52.498;13.462;2023-07-29T02:01:08;13.90;;;7.32;;
72235;SDS011;60146;52.498;13.462;2023-07-29T02:03:34;20.58;;;8.50;;
72235;SDS011;60146;52.498;13.462;2023-07-29T02:05:59;23.85;;;10.27;;
72235;SDS011;60146;52.498;13.462;2023-07-29T02:08:24;25.42;;;10.23;;
72235;SDS011;60146;52.498;13.462;2023-07-29T02:10:50;28.42;;;11.02;;
72235;SDS011;60146;52.498;13.462;2023-07-29T02:13:15;15.00;;;7.32;;
72235;SDS011;60146;52.498;13.462;2023-07-29T02:15:40;14.18;;;7.43;;
72235;SDS011;60146;52.498;13.462;2023-07-29T02:18:06;12.88;;;6.85;;
72235;SDS011;60146;52.498;13.462;2023-07-29T02:20:32;15.82;;;7.72;;
72235;SDS011;60146;52.498;13.462;2023-07-29T02:22:57;51.75;;;18.35;;
72235;SDS011;60146;52.498;13.462;2023-07-29T02:25:23;19.95;;;8.93;;
72235;SDS011;60146;52.498;13.462;2023-07-29T02:27:48;21.42;;;9.27;;
72235;SDS011;60146;52.498;13.462;2023-07-29T02:30:13;35.00;;;12.80;;
72235;SDS011;60146;52.498;13.462;2023-07-29T02:32:39;27.85;;;12.25;;
72235;SDS011;60146;52.498;13.462;2023-07-29T02:35:04;29.42;;;11.93;;
72235;SDS011;60146;52.498;13.462;2023-07-29T02:37:30;21.23;;;9.95;;
72235;SDS011;60146;52.498;13.462;2023-07-29T02:39:55;24.35;;;10.35;;
72235;SDS011;60146;52.498;13.462;2023-07-29T02:42:21;37.28;;;12.98;;
72235;SDS011;60146;52.498;13.462;2023-07-29T02:44:46;18.10;;;8.05;;
72235;SDS011;60146;52.498;13.462;2023-07-29T02:47:11;16.63;;;8.50;;
72235;SDS011;60146;52.498;13.462;2023-07-29T02:49:37;15.70;;;7.97;;
72235;SDS011;60146;52.498;13.462;2023-07-29T02:52:02;15.63;;;7.32;;
72235;SDS011;60146;52.498;13.462;2023-07-29T02:54:28;20.38;;;9.23;;
72235;SDS011;60146;52.498;13.462;2023-07-29T02:56:53;32.10;;;13.43;;
72235;SDS011;60146;52.498;13.462;2023-07-29T02:59:19;21.33;;;9.52;;
72235;SDS011;60146;52.498;13.462;2023-07-29T03:01:45;17.77;;;8.65;;
72235;SDS011;60146;52.498;13.462;2023-07-29T03:04:10;26.65;;;10.48;;
72235;SDS011;60146;52.498;13.462;2023-07-29T03:06:38;20.92;;;10.07;;
72235;SDS011;60146;52.498;13.462;2023-07-29T03:09:03;29.23;;;11.98;;
72235;SDS011;60146;52.498;13.462;2023-07-29T03:11:29;25.13;;;10.82;;
72235;SDS011;60146;52.498;13.462;2023-07-29T03:13:56;18.23;;;9.15;;
72235;SDS011;60146;52.498;13.462;2023-07-29T03:16:21;19.20;;;8.75;;
72235;SDS011;60146;52.498;13.462;2023-07-29T03:18:47;15.77;;;7.57;;
72235;SDS011;60146;52.498;13.462;2023-07-29T03:21:13;15.93;;;7.22;;
72235;SDS011;60146;52.498;13.462;2023-07-29T03:23:39;10.95;;;6.45;;
72235;SDS011;60146;52.498;13.462;2023-07-29T03:26:04;14.53;;;7.10;;
72235;SDS011;60146;52.498;13.462;2023-07-29T03:28:36;23.35;;;10.60;;
72235;SDS011;60146;52.498;13.462;2023-07-29T03:31:08;31.85;;;11.95;;
72235;SDS011;60146;52.498;13.462;2023-07-29T03:33:34;33.28;;;14.57;;
72235;SDS011;60146;52.498;13.462;2023-07-29T03:35:59;26.45;;;11.18;;
72235;SDS011;60146;52.498;13.462;2023-07-29T03:38:25;28.92;;;11.93;;
72235;SDS011;60146;52.498;13.462;2023-07-29T03:40:51;34.78;;;13.18;;
72235;SDS011;60146;52.498;13.462;2023-07-29T03:43:16;18.48;;;8.38;;
72235;SDS011;60146;52.498;13.462;2023-07-29T03:45:41;18.50;;;8.98;;
72235;SDS011;60146;52.498;13.462;2023-07-29T03:48:07;19.67;;;9.75;;
72235;SDS011;60146;52.498;13.462;2023-07-29T03:50:33;21.80;;;10.55;;
72235;SDS011;60146;52.498;13.462;2023-07-29T03:53:00;30.40;;;13.02;;
72235;SDS011;60146;52.498;13.462;2023-07-29T03:55:26;26.98;;;11.35;;
72235;SDS011;60146;52.498;13.462;2023-07-29T03:57:51;19.05;;;8.43;;
72235;SDS011;60146;52.498;13.462;2023-07-29T04:00:16;22.65;;;10.25;;
72235;SDS011;60146;52.498;13.462;2023-07-29T04:02:42;20.73;;;9.70;;
72235;SDS011;60146;52.498;13.462;2023-07-29T04:05:07;23.48;;;10.25;;
72235;SDS011;60146;52.498;13.462;2023-07-29T04:07:33;25.38;;;10.50;;
72235;SDS011;60146;52.498;13.462;2023-07-29T04:10:00;18.55;;;9.10;;
72235;SDS011;60146;52.498;13.462;2023-07-29T04:12:25;20.63;;;9.45;;
72235;SDS011;60146;52.498;13.462;2023-07-29T04:14:51;20.63;;;9.88;;
72235;SDS011;60146;52.498;13.462;2023-07-29T04:17:17;16.58;;;8.27;;
72235;SDS011;60146;52.498;13.462;2023-07-29T04:19:42;13.35;;;7.40;;
72235;SDS011;60146;52.498;13.462;2023-07-29T04:22:08;18.23;;;8.77;;
72235;SDS011;60146;52.498;13.462;2023-07-29T04:24:33;18.20;;;7.85;;
72235;SDS011;60146;52.498;13.462;2023-07-29T04:26:58;17.52;;;8.57;;
72235;SDS011;60146;52.498;13.462;2023-07-29T04:29:24;20.50;;;9.52;;
72235;SDS011;60146;52.498;13.462;2023-07-29T04:31:50;12.63;;;6.45;;
72235;SDS011;60146;52.498;13.462;2023-07-29T04:34:16;15.70;;;7.82;;
72235;SDS011;60146;52.498;13.462;2023-07-29T04:36:43;21.17;;;9.52;;
72235;SDS011;60146;52.498;13.462;2023-07-29T04:39:08;17.65;;;8.30;;
72235;SDS011;60146;52.498;13.462;2023-07-29T04:41:34;18.88;;;8.98;;
72235;SDS011;60146;52.498;13.462;2023-07-29T04:43:59;11.95;;;6.85;;
72235;SDS011;60146;52.498;13.462;2023-07-29T04:46:24;19.70;;;9.18;;
72235;SDS011;60146;52.498;13.462;2023-07-29T04:48:50;9.65;;;5.95;;
72235;SDS011;60146;52.498;13.462;2023-07-29T04:51:15;9.73;;;5.22;;
72235;SDS011;60146;52.498;13.462;2023-07-29T04:53:40;9.13;;;5.05;;
72235;SDS011;60146;52.498;13.462;2023-07-29T04:56:06;11.52;;;6.63;;
72235;SDS011;60146;52.498;13.462;2023-07-29T04:58:31;13.13;;;7.10;;
72235;SDS011;60146;52.498;13.462;2023-07-29T05:00:59;24.23;;;10.32;;
72235;SDS011;60146;52.498;13.462;2023-07-29T05:03:25;10.32;;;6.07;;
72235;SDS011;60146;52.498;13.462;2023-07-29T05:05:51;11.32;;;6.65;;
72235;SDS011;60146;52.498;13.462;2023-07-29T05:08:18;19.23;;;9.45;;
72235;SDS011;60146;52.498;13.462;2023-07-29T05:10:43;21.13;;;9.68;;
72235;SDS011;60146;52.498;13.462;2023-07-29T05:13:09;12.10;;;6.30;;
72235;SDS011;60146;52.498;13.462;2023-07-29T05:15:34;9.75;;;4.80;;
72235;SDS011;60146;52.498;13.462;2023-07-29T05:17:59;9.57;;;4.97;;
72235;SDS011;60146;52.498;13.462;2023-07-29T05:20:25;7.32;;;4.95;;
72235;SDS011;60146;52.498;13.462;2023-07-29T05:22:50;7.85;;;4.72;;
72235;SDS011;60146;52.498;13.462;2023-07-29T05:25:16;6.57;;;4.43;;
72235;SDS011;60146;52.498;13.462;2023-07-29T05:27:41;8.93;;;5.53;;
72235;SDS011;60146;52.498;13.462;2023-07-29T05:30:06;7.90;;;4.45;;
72235;SDS011;60146;52.498;13.462;2023-07-29T05:32:32;10.40;;;5.28;;
72235;SDS011;60146;52.498;13.462;2023-07-29T05:34:58;11.15;;;5.80;;
72235;SDS011;60146;52.498;13.462;2023-07-29T05:37:23;12.07;;;5.93;;
72235;SDS011;60146;52.498;13.462;2023-07-29T05:39:48;5.35;;;3.97;;
72235;SDS011;60146;52.498;13.462;2023-07-29T05:42:14;7.22;;;5.00;;
72235;SDS011;60146;52.498;13.462;2023-07-29T05:44:39;8.85;;;4.53;;
72235;SDS011;60146;52.498;13.462;2023-07-29T05:47:04;7.30;;;4.40;;
72235;SDS011;60146;52.498;13.462;2023-07-29T05:49:30;5.38;;;4.00;;
72235;SDS011;60146;52.498;13.462;2023-07-29T05:51:56;5.97;;;3.97;;
72235;SDS011;60146;52.498;13.462;2023-07-29T05:54:21;6.32;;;4.00;;
72235;SDS011;60146;52.498;13.462;2023-07-29T05:56:46;6.22;;;3.95;;
72235;SDS011;60146;52.498;13.462;2023-07-29T05:59:12;5.93;;;3.38;;
72235;SDS011;60146;52.498;13.462;2023-07-29T06:01:37;5.53;;;3.90;;
72235;SDS011;60146;52.498;13.462;2023-07-29T06:04:03;6.75;;;3.90;;
72235;SDS011;60146;52.498;13.462;2023-07-29T06:06:28;6.63;;;4.10;;
72235;SDS011;60146;52.498;13.462;2023-07-29T06:08:54;9.70;;;4.88;;
72235;SDS011;60146;52.498;13.462;2023-07-29T06:11:19;6.28;;;3.75;;
72235;SDS011;60146;52.498;13.462;2023-07-29T06:13:45;7.20;;;3.92;;
72235;SDS011;60146;52.498;13.462;2023-07-29T06:16:12;6.13;;;3.95;;
72235;SDS011;60146;52.498;13.462;2023-07-29T06:18:37;5.40;;;3.47;;
72235;SDS011;60146;52.498;13.462;2023-07-29T06:21:03;5.97;;;3.50;;
72235;SDS011;60146;52.498;13.462;2023-07-29T06:23:32;5.70;;;3.38;;
72235;SDS011;60146;52.498;13.462;2023-07-29T06:25:58;5.28;;;3.45;;
72235;SDS011;60146;52.498;13.462;2023-07-29T06:28:25;7.35;;;3.45;;
72235;SDS011;60146;52.498;13.462;2023-07-29T06:30:51;7.03;;;3.60;;
72235;SDS011;60146;52.498;13.462;2023-07-29T06:33:16;5.80;;;3.72;;
72235;SDS011;60146;52.498;13.462;2023-07-29T06:35:41;5.78;;;3.40;;
72235;SDS011;60146;52.498;13.462;2023-07-29T06:38:07;8.07;;;4.10;;
72235;SDS011;60146;52.498;13.462;2023-07-29T06:40:32;7.57;;;4.95;;
72235;SDS011;60146;52.498;13.462;2023-07-29T06:42:57;8.63;;;3.58;;
72235;SDS011;60146;52.498;13.462;2023-07-29T06:45:23;4.07;;;3.15;;
72235;SDS011;60146;52.498;13.462;2023-07-29T06:47:48;5.47;;;3.40;;
72235;SDS011;60146;52.498;13.462;2023-07-29T06:50:13;4.05;;;3.00;;
72235;SDS011;60146;52.498;13.462;2023-07-29T06:52:39;5.55;;;3.17;;
72235;SDS011;60146;52.498;13.462;2023-07-29T06:55:05;4.32;;;3.20;;
72235;SDS011;60146;52.498;13.462;2023-07-29T06:57:31;6.63;;;3.20;;
72235;SDS011;60146;52.498;13.462;2023-07-29T06:59:57;4.25;;;3.10;;
72235;SDS011;60146;52.498;13.462;2023-07-29T07:02:22;4.65;;;2.70;;
72235;SDS011;60146;52.498;13.462;2023-07-29T07:04:52;3.75;;;3.20;;
72235;SDS011;60146;52.498;13.462;2023-07-29T07:07:18;4.97;;;2.72;;
72235;SDS011;60146;52.498;13.462;2023-07-29T07:09:43;5.15;;;3.00;;
72235;SDS011;60146;52.498;13.462;2023-07-29T07:12:08;4.57;;;2.95;;
72235;SDS011;60146;52.498;13.462;2023-07-29T07:14:34;3.50;;;2.70;;
72235;SDS011;60146;52.498;13.462;2023-07-29T07:17:08;6.00;;;3.25;;
72235;SDS011;60146;52.498;13.462;2023-07-29T07:19:40;5.20;;;3.17;;
72235;SDS011;60146;52.498;13.462;2023-07-29T07:22:05;6.38;;;2.97;;
72235;SDS011;60146;52.498;13.462;2023-07-29T07:24:32;5.20;;;3.40;;
72235;SDS011;60146;52.498;13.462;2023-07-29T07:26:58;4.13;;;3.10;;
72235;SDS011;60146;52.498;13.462;2023-07-29T07:29:23;5.28;;;3.13;;
72235;SDS011;60146;52.498;13.462;2023-07-29T07:31:52;4.22;;;3.10;;
72235;SDS011;60146;52.498;13.462;2023-07-29T07:36:44;4.35;;;2.90;;
72235;SDS011;60146;52.498;13.462;2023-07-29T07:39:10;4.15;;;2.80;;
72235;SDS011;60146;52.498;13.462;2023-07-29T07:41:35;3.78;;;2.85;;
72235;SDS011;60146;52.498;13.462;2023-07-29T07:44:00;5.20;;;3.42;;
72235;SDS011;60146;52.498;13.462;2023-07-29T07:46:29;3.15;;;2.78;;
72235;SDS011;60146;52.498;13.462;2023-07-29T07:49:03;3.40;;;2.70;;
72235;SDS011;60146;52.498;13.462;2023-07-29T07:51:29;5.28;;;2.90;;
72235;SDS011;60146;52.498;13.462;2023-07-29T07:53:54;3.63;;;2.80;;
72235;SDS011;60146;52.498;13.462;2023-07-29T07:56:20;3.78;;;3.30;;
72235;SDS011;60146;52.498;13.462;2023-07-29T07:58:45;5.75;;;3.42;;
72235;SDS011;60146;52.498;13.462;2023-07-29T08:01:10;4.70;;;3.00;;
72235;SDS011;60146;52.498;13.462;2023-07-29T08:03:36;3.25;;;2.88;;
72235;SDS011;60146;52.498;13.462;2023-07-29T08:06:01;4.60;;;2.85;;
72235;SDS011;60146;52.498;13.462;2023-07-29T08:08:27;3.08;;;2.72;;
72235;SDS011;60146;52.498;13.462;2023-07-29T08:10:53;3.75;;;3.10;;
72235;SDS011;60146;52.498;13.462;2023-07-29T08:13:19;3.88;;;3.03;;
72235;SDS011;60146;52.498;13.462;2023-07-29T08:15:46;3.38;;;2.65;;
72235;SDS011;60146;52.498;13.462;2023-07-29T08:18:12;5.53;;;2.80;;
72235;SDS011;60146;52.498;13.462;2023-07-29T08:20:38;3.40;;;2.60;;
72235;SDS011;60146;52.498;13.462;2023-07-29T08:23:03;6.07;;;2.80;;
72235;SDS011;60146;52.498;13.462;2023-07-29T08:25:31;4.85;;;2.58;;
72235;SDS011;60146;52.498;13.462;2023-07-29T08:27:56;2.90;;;2.60;;
72235;SDS011;60146;52.498;13.462;2023-07-29T08:30:22;4.20;;;2.65;;
72235;SDS011;60146;52.498;13.462;2023-07-29T08:32:47;3.13;;;2.20;;
72235;SDS011;60146;52.498;13.462;2023-07-29T08:35:12;3.45;;;2.55;;
72235;SDS011;60146;52.498;13.462;2023-07-29T08:37:38;3.33;;;2.92;;
72235;SDS011;60146;52.498;13.462;2023-07-29T08:40:03;2.78;;;2.42;;
72235;SDS011;60146;52.498;13.462;2023-07-29T08:42:31;3.60;;;2.70;;
72235;SDS011;60146;52.498;13.462;2023-07-29T08:44:58;2.30;;;2.10;;
72235;SDS011;60146;52.498;13.462;2023-07-29T08:47:31;2.90;;;2.30;;
72235;SDS011;60146;52.498;13.462;2023-07-29T08:49:56;3.45;;;2.40;;
72235;SDS011;60146;52.498;13.462;2023-07-29T08:52:23;3.30;;;2.35;;
72235;SDS011;60146;52.498;13.462;2023-07-29T08:54:50;3.40;;;2.22;;
72235;SDS011;60146;52.498;13.462;2023-07-29T08:57:17;2.97;;;2.30;;
72235;SDS011;60146;52.498;13.462;2023-07-29T08:59:45;2.78;;;2.40;;
72235;SDS011;60146;52.498;13.462;2023-07-29T09:02:11;3.05;;;2.40;;
72235;SDS011;60146;52.498;13.462;2023-07-29T09:04:36;2.53;;;2.22;;
72235;SDS011;60146;52.498;13.462;2023-07-29T09:07:01;3.33;;;2.00;;
72235;SDS011;60146;52.498;13.462;2023-07-29T09:09:27;2.88;;;1.98;;
72235;SDS011;60146;52.498;13.462;2023-07-29T09:11:53;3.03;;;2.15;;
72235;SDS011;60146;52.498;13.462;2023-07-29T09:14:19;3.35;;;2.35;;
72235;SDS011;60146;52.498;13.462;2023-07-29T09:16:45;5.70;;;2.50;;
72235;SDS011;60146;52.498;13.462;2023-07-29T09:19:11;2.60;;;2.10;;
72235;SDS011;60146;52.498;13.462;2023-07-29T09:21:38;3.30;;;2.20;;
72235;SDS011;60146;52.498;13.462;2023-07-29T09:24:05;4.35;;;2.08;;
72235;SDS011;60146;52.498;13.462;2023-07-29T09:26:32;4.15;;;2.35;;
72235;SDS011;60146;52.498;13.462;2023-07-29T09:28:58;4.18;;;2.20;;
72235;SDS011;60146;52.498;13.462;2023-07-29T09:31:25;3.08;;;1.90;;
72235;SDS011;60146;52.498;13.462;2023-07-29T09:33:57;2.60;;;2.00;;
72235;SDS011;60146;52.498;13.462;2023-07-29T09:36:23;5.55;;;2.33;;
72235;SDS011;60146;52.498;13.462;2023-07-29T09:38:52;3.05;;;2.20;;
72235;SDS011;60146;52.498;13.462;2023-07-29T09:43:43;2.03;;;1.73;;
72235;SDS011;60146;52.498;13.462;2023-07-29T09:46:09;2.40;;;2.10;;
72235;SDS011;60146;52.498;13.462;2023-07-29T09:48:35;3.03;;;1.92;;
72235;SDS011;60146;52.498;13.462;2023-07-29T09:51:09;2.60;;;1.80;;
72235;SDS011;60146;52.498;13.462;2023-07-29T09:53:43;3.00;;;1.90;;
72235;SDS011;60146;52.498;13.462;2023-07-29T09:56:10;4.95;;;1.90;;
72235;SDS011;60146;52.498;13.462;2023-07-29T09:58:35;2.95;;;1.90;;
72235;SDS011;60146;52.498;13.462;2023-07-29T10:01:03;4.05;;;2.30;;
72235;SDS011;60146;52.498;13.462;2023-07-29T10:03:32;2.55;;;1.80;;
72235;SDS011;60146;52.498;13.462;2023-07-29T10:06:02;2.50;;;1.73;;
72235;SDS011;60146;52.498;13.462;2023-07-29T10:08:31;3.03;;;1.90;;
72235;SDS011;60146;52.498;13.462;2023-07-29T10:11:00;2.22;;;1.83;;
72235;SDS011;60146;52.498;13.462;2023-07-29T10:13:27;2.30;;;1.63;;
72235;SDS011;60146;52.498;13.462;2023-07-29T10:15:55;2.42;;;1.90;;
72235;SDS011;60146;52.498;13.462;2023-07-29T10:18:22;4.00;;;1.60;;
72235;SDS011;60146;52.498;13.462;2023-07-29T10:20:48;2.25;;;1.65;;
72235;SDS011;60146;52.498;13.462;2023-07-29T10:23:15;3.22;;;1.55;;
72235;SDS011;60146;52.498;13.462;2023-07-29T10:25:43;1.52;;;1.42;;
72235;SDS011;60146;52.498;13.462;2023-07-29T10:28:12;2.65;;;1.50;;
72235;SDS011;60146;52.498;13.462;2023-07-29T10:30:40;1.58;;;1.42;;
72235;SDS011;60146;52.498;13.462;2023-07-29T10:33:06;1.90;;;1.50;;
72235;SDS011;60146;52.498;13.462;2023-07-29T10:35:32;3.00;;;1.90;;
72235;SDS011;60146;52.498;13.462;2023-07-29T10:37:58;2.58;;;1.60;;
72235;SDS011;60146;52.498;13.462;2023-07-29T10:40:25;1.80;;;1.70;;
72235;SDS011;60146;52.498;13.462;2023-07-29T10:43:00;2.92;;;1.70;;
72235;SDS011;60146;52.498;13.462;2023-07-29T10:45:27;2.85;;;1.70;;
72235;SDS011;60146;52.498;13.462;2023-07-29T10:48:05;1.60;;;1.50;;
72235;SDS011;60146;52.498;13.462;2023-07-29T10:50:50;1.42;;;1.33;;
72235;SDS011;60146;52.498;13.462;2023-07-29T10:53:17;2.38;;;1.70;;
72235;SDS011;60146;52.498;13.462;2023-07-29T10:55:43;2.15;;;1.35;;
72235;SDS011;60146;52.498;13.462;2023-07-29T10:58:15;2.35;;;1.48;;
72235;SDS011;60146;52.498;13.462;2023-07-29T11:00:44;1.27;;;1.00;;
72235;SDS011;60146;52.498;13.462;2023-07-29T11:03:11;1.38;;;1.27;;
72235;SDS011;60146;52.498;13.462;2023-07-29T11:08:17;3.03;;;1.20;;
72235;SDS011;60146;52.498;13.462;2023-07-29T11:10:44;2.15;;;1.50;;
72235;SDS011;60146;52.498;13.462;2023-07-29T11:13:27;3.00;;;1.45;;
72235;SDS011;60146;52.498;13.462;2023-07-29T11:15:54;1.40;;;1.23;;
72235;SDS011;60146;52.498;13.462;2023-07-29T11:18:21;2.90;;;1.30;;
72235;SDS011;60146;52.498;13.462;2023-07-29T11:20:46;3.10;;;1.48;;
72235;SDS011;60146;52.498;13.462;2023-07-29T11:23:13;0.98;;;0.88;;
72235;SDS011;60146;52.498;13.462;2023-07-29T11:25:38;5.70;;;1.35;;
72235;SDS011;60146;52.498;13.462;2023-07-29T11:28:04;7.70;;;1.58;;
72235;SDS011;60146;52.498;13.462;2023-07-29T11:30:29;5.32;;;1.88;;
72235;SDS011;60146;52.498;13.462;2023-07-29T11:32:56;4.60;;;1.90;;
72235;SDS011;60146;52.498;13.462;2023-07-29T11:35:22;6.28;;;1.75;;
72235;SDS011;60146;52.498;13.462;2023-07-29T11:37:48;3.15;;;1.20;;
72235;SDS011;60146;52.498;13.462;2023-07-29T11:40:16;1.88;;;1.20;;
72235;SDS011;60146;52.498;13.462;2023-07-29T11:42:43;1.45;;;1.00;;
72235;SDS011;60146;52.498;13.462;2023-07-29T11:45:09;4.70;;;1.20;;
72235;SDS011;60146;52.498;13.462;2023-07-29T11:47:35;3.47;;;1.30;;
72235;SDS011;60146;52.498;13.462;2023-07-29T11:50:06;2.25;;;1.10;;
72235;SDS011;60146;52.498;13.462;2023-07-29T11:52:34;3.97;;;1.40;;
72235;SDS011;60146;52.498;13.462;2023-07-29T11:55:01;3.10;;;1.20;;
72235;SDS011;60146;52.498;13.462;2023-07-29T11:57:28;1.88;;;1.13;;
72235;SDS011;60146;52.498;13.462;2023-07-29T11:59:54;2.88;;;1.50;;
72235;SDS011;60146;52.498;13.462;2023-07-29T12:02:20;2.92;;;1.02;;
72235;SDS011;60146;52.498;13.462;2023-07-29T12:04:47;1.60;;;1.10;;
72235;SDS011;60146;52.498;13.462;2023-07-29T12:07:13;4.10;;;1.45;;
72235;SDS011;60146;52.498;13.462;2023-07-29T12:09:40;1.83;;;1.45;;
72235;SDS011;60146;52.498;13.462;2023-07-29T12:12:07;1.60;;;1.15;;
72235;SDS011;60146;52.498;13.462;2023-07-29T12:14:33;1.88;;;1.20;;
72235;SDS011;60146;52.498;13.462;2023-07-29T12:16:59;3.25;;;1.13;;
72235;SDS011;60146;52.498;13.462;2023-07-29T12:19:33;7.03;;;1.30;;
72235;SDS011;60146;52.498;13.462;2023-07-29T12:22:00;3.10;;;1.50;;
72235;SDS011;60146;52.498;13.462;2023-07-29T12:24:32;3.53;;;1.60;;
72235;SDS011;60146;52.498;13.462;2023-07-29T12:26:59;2.65;;;1.25;;
72235;SDS011;60146;52.498;13.462;2023-07-29T12:29:24;3.20;;;1.65;;
72235;SDS011;60146;52.498;13.462;2023-07-29T12:31:57;2.60;;;1.70;;
72235;SDS011;60146;52.498;13.462;2023-07-29T12:34:25;5.43;;;2.20;;
72235;SDS011;60146;52.498;13.462;2023-07-29T12:36:53;3.78;;;1.77;;
72235;SDS011;60146;52.498;13.462;2023-07-29T12:39:21;3.38;;;1.70;;
72235;SDS011;60146;52.498;13.462;2023-07-29T12:41:54;3.08;;;1.80;;
72235;SDS011;60146;52.498;13.462;2023-07-29T12:44:22;3.67;;;1.98;;
72235;SDS011;60146;52.498;13.462;2023-07-29T12:46:48;4.35;;;1.90;;
72235;SDS011;60146;52.498;13.462;2023-07-29T12:49:13;2.35;;;1.58;;
72235;SDS011;60146;52.498;13.462;2023-07-29T12:51:39;3.25;;;1.90;;
72235;SDS011;60146;52.498;13.462;2023-07-29T12:54:04;1.90;;;1.60;;
72235;SDS011;60146;52.498;13.462;2023-07-29T12:56:30;2.08;;;1.60;;
72235;SDS011;60146;52.498;13.462;2023-07-29T12:58:56;3.50;;;1.50;;
72235;SDS011;60146;52.498;13.462;2023-07-29T13:01:23;2.55;;;1.55;;
72235;SDS011;60146;52.498;13.462;2023-07-29T13:03:48;2.17;;;1.30;;
72235;SDS011;60146;52.498;13.462;2023-07-29T13:06:14;2.78;;;1.23;;
72235;SDS011;60146;52.498;13.462;2023-07-29T13:08:40;1.38;;;1.27;;
72235;SDS011;60146;52.498;13.462;2023-07-29T13:11:06;3.88;;;1.55;;
72235;SDS011;60146;52.498;13.462;2023-07-29T13:13:31;2.10;;;1.30;;
72235;SDS011;60146;52.498;13.462;2023-07-29T13:15:57;2.25;;;1.50;;
72235;SDS011;60146;52.498;13.462;2023-07-29T13:18:22;2.33;;;1.52;;
72235;SDS011;60146;52.498;13.462;2023-07-29T13:20:48;6.15;;;1.88;;
72235;SDS011;60146;52.498;13.462;2023-07-29T13:23:13;1.55;;;1.40;;
72235;SDS011;60146;52.498;13.462;2023-07-29T13:25:42;1.50;;;1.40;;
72235;SDS011;60146;52.498;13.462;2023-07-29T13:28:11;2.10;;;1.60;;
72235;SDS011;60146;52.498;13.462;2023-07-29T13:30:40;5.53;;;1.60;;
72235;SDS011;60146;52.498;13.462;2023-07-29T13:33:08;2.38;;;1.40;;
72235;SDS011;60146;52.498;13.462;2023-07-29T13:35:33;2.08;;;1.50;;
72235;SDS011;60146;52.498;13.462;2023-07-29T13:37:59;3.88;;;1.70;;
72235;SDS011;60146;52.498;13.462;2023-07-29T13:40:25;1.98;;;1.50;;
72235;SDS011;60146;52.498;13.462;2023-07-29T13:42:51;2.17;;;1.60;;
72235;SDS011;60146;52.498;13.462;2023-07-29T13:45:17;1.77;;;1.65;;
72235;SDS011;60146;52.498;13.462;2023-07-29T13:47:42;2.42;;;1.60;;
72235;SDS011;60146;52.498;13.462;2023-07-29T13:50:08;2.47;;;1.58;;
72235;SDS011;60146;52.498;13.462;2023-07-29T13:52:33;1.58;;;1.42;;
72235;SDS011;60146;52.498;13.462;2023-07-29T13:54:59;2.58;;;1.42;;
72235;SDS011;60146;52.498;13.462;2023-07-29T13:57:24;3.53;;;1.27;;
72235;SDS011;60146;52.498;13.462;2023-07-29T13:59:50;1.00;;;1.00;;
72235;SDS011;60146;52.498;13.462;2023-07-29T14:02:15;1.13;;;0.90;;
72235;SDS011;60146;52.498;13.462;2023-07-29T14:04:40;1.20;;;1.10;;
72235;SDS011;60146;52.498;13.462;2023-07-29T14:07:06;1.10;;;1.00;;
72235;SDS011;60146;52.498;13.462;2023-07-29T14:09:31;1.42;;;1.10;;
72235;SDS011;60146;52.498;13.462;2023-07-29T14:11:57;1.33;;;1.17;;
72235;SDS011;60146;52.498;13.462;2023-07-29T14:14:22;2.08;;;1.00;;
72235;SDS011;60146;52.498;13.462;2023-07-29T14:16:48;1.02;;;0.98;;
72235;SDS011;60146;52.498;13.462;2023-07-29T14:19:14;1.48;;;1.00;;
72235;SDS011;60146;52.498;13.462;2023-07-29T14:21:39;1.48;;;1.13;;
72235;SDS011;60146;52.498;13.462;2023-07-29T14:24:05;3.40;;;0.90;;
72235;SDS011;60146;52.498;13.462;2023-07-29T14:26:31;2.08;;;1.00;;
72235;SDS011;60146;52.498;13.462;2023-07-29T14:28:56;1.73;;;1.00;;
72235;SDS011;60146;52.498;13.462;2023-07-29T14:31:22;1.35;;;0.93;;
72235;SDS011;60146;52.498;13.462;2023-07-29T14:33:47;1.10;;;1.00;;
72235;SDS011;60146;52.498;13.462;2023-07-29T14:36:14;1.05;;;0.95;;
72235;SDS011;60146;52.498;13.462;2023-07-29T14:38:40;1.08;;;0.98;;
72235;SDS011;60146;52.498;13.462;2023-07-29T14:41:05;1.10;;;1.00;;